Terminal Aerodrome Forecast
Issued by NWS Tulsa, OK

Home | Current Version | Previous Version | Text Only | Print | Product List | Glossary On
Versions: 1 2 3 4 5 6 7 8 9 10 11 12 13 14
000
FTUS44 KTSA 282327
TAFFSM
TAF
KFSM 282327Z 2900/2924 08007KT P6SM SCT250
     FM291000 09004KT P6SM OVC050
      TEMPO 2912/2916 4SM -TSRA OVC025CB
     FM291600 08011KT 6SM -TSRA OVC015CB
      TEMPO 2916/2920 4SM -TSRA BKN008CB
     FM292000 09012KT 5SM -TSRA OVC008CB=

USA.gov is the U.S. government's official web portal to all federal, state and local government web resources and services.